createdAt,value
2022-10-19T00:01:21.400Z,94.58
2022-10-19T00:03:54.925Z,94.39
2022-10-19T00:06:32.408Z,94.61
2022-10-19T00:09:16.659Z,94.95
2022-10-19T00:11:48.406Z,95.66
2022-10-19T00:14:22.748Z,96.05
2022-10-19T00:16:52.996Z,96.04
2022-10-19T00:19:25.696Z,96.10
2022-10-19T00:21:53.508Z,96.55
2022-10-19T00:24:21.450Z,97.10
2022-10-19T00:26:48.496Z,97.86
2022-10-19T00:29:16.089Z,98.10
2022-10-19T00:31:43.416Z,98.39
2022-10-19T00:34:10.958Z,98.37
2022-10-19T00:36:40.899Z,98.31
2022-10-19T00:39:13.051Z,98.35
2022-10-19T00:41:40.912Z,98.31
2022-10-19T00:44:13.904Z,98.47
2022-10-19T00:46:44.892Z,98.50
2022-10-19T00:49:26.515Z,98.54
2022-10-19T00:52:03.271Z,98.82
2022-10-19T00:54:36.057Z,99.09
2022-10-19T00:57:04.685Z,98.97
2022-10-19T00:59:33.365Z,98.94
2022-10-19T01:02:03.984Z,98.98
2022-10-19T01:04:35.224Z,99.03
2022-10-19T01:07:05.286Z,98.71
2022-10-19T01:09:32.298Z,98.70
2022-10-19T01:12:36.332Z,98.77
2022-10-19T01:15:29.402Z,98.99
2022-10-19T01:18:33.263Z,99.00
2022-10-19T01:21:15.408Z,99.25
2022-10-19T01:24:05.925Z,99.29
2022-10-19T01:26:57.651Z,99.31
2022-10-19T01:29:49.067Z,99.34
2022-10-19T01:32:31.325Z,99.40
2022-10-19T01:35:18.020Z,99.58
2022-10-19T01:38:12.716Z,99.42
2022-10-19T01:41:00.206Z,99.36
2022-10-19T01:43:59.533Z,99.44
2022-10-19T01:46:38.701Z,99.61
2022-10-19T01:49:29.390Z,99.75
2022-10-19T01:52:04.047Z,99.78
2022-10-19T01:54:43.507Z,99.61
2022-10-19T01:57:19.995Z,99.96
2022-10-19T01:59:49.996Z,99.98
2022-10-19T02:02:20.748Z,99.85
2022-10-19T02:04:51.142Z,100.00
2022-10-19T02:07:22.850Z,100.00
2022-10-19T02:09:50.298Z,100.00
2022-10-19T02:12:18.801Z,100.00
2022-10-19T02:14:56.544Z,100.00
2022-10-19T02:17:33.363Z,99.98
2022-10-19T02:20:01.635Z,100.00
2022-10-19T02:22:29.331Z,100.00
2022-10-19T02:24:56.437Z,100.00
2022-10-19T02:27:23.816Z,100.00
2022-10-19T02:29:52.022Z,100.00
2022-10-19T02:32:21.468Z,100.00
2022-10-19T02:34:48.728Z,100.00
2022-10-19T02:37:15.881Z,100.00
2022-10-19T02:39:43.147Z,100.00
2022-10-19T02:42:38.577Z,100.00
2022-10-19T02:45:05.634Z,100.00
2022-10-19T02:47:44.923Z,100.00
2022-10-19T02:50:13.277Z,100.00
2022-10-19T02:52:41.614Z,99.91
2022-10-19T02:55:09.303Z,100.00
2022-10-19T02:57:37.255Z,100.00
2022-10-19T03:00:08.212Z,100.00
2022-10-19T03:02:35.358Z,100.00
2022-10-19T03:05:03.755Z,100.00
2022-10-19T03:07:30.804Z,100.00
2022-10-19T03:09:58.062Z,100.00
2022-10-19T03:12:25.143Z,100.00
2022-10-19T03:14:52.313Z,100.00
2022-10-19T03:17:19.582Z,100.00
2022-10-19T03:19:46.707Z,100.00
2022-10-19T03:22:14.978Z,100.00
2022-10-19T03:24:43.099Z,100.00
2022-10-19T03:27:10.237Z,100.00
2022-10-19T03:29:37.222Z,100.00
2022-10-19T03:32:05.014Z,99.92
2022-10-19T03:34:32.112Z,99.95
2022-10-19T03:36:59.314Z,99.87
2022-10-19T03:39:26.611Z,100.00
2022-10-19T03:41:53.588Z,100.00
2022-10-19T03:44:20.647Z,100.00
2022-10-19T03:46:47.681Z,100.00
2022-10-19T03:49:15.719Z,100.00
2022-10-19T03:51:42.854Z,100.00
2022-10-19T03:54:15.406Z,100.00
2022-10-19T03:56:43.587Z,100.00
2022-10-19T03:59:14.767Z,100.00
2022-10-19T04:01:46.159Z,100.00
2022-10-19T04:04:17.456Z,100.00
2022-10-19T04:06:49.932Z,100.00
2022-10-19T04:09:22.453Z,100.00
2022-10-19T04:11:50.451Z,100.00
2022-10-19T04:14:31.816Z,100.00
2022-10-19T04:17:02.393Z,100.00
2022-10-19T04:19:29.905Z,100.00
2022-10-19T04:21:57.807Z,100.00
2022-10-19T04:24:25.246Z,100.00
2022-10-19T04:26:55.543Z,100.00
2022-10-19T04:29:29.509Z,100.00
2022-10-19T04:31:58.602Z,100.00
2022-10-19T04:34:26.758Z,100.00
2022-10-19T04:36:53.997Z,100.00
2022-10-19T04:39:21.028Z,100.00
2022-10-19T04:41:48.035Z,100.00
2022-10-19T04:44:15.569Z,100.00
2022-10-19T04:46:43.652Z,100.00
2022-10-19T04:49:10.696Z,100.00
2022-10-19T04:51:37.771Z,100.00
2022-10-19T04:54:04.911Z,100.00
2022-10-19T04:56:32.377Z,100.00
2022-10-19T04:59:01.090Z,100.00
2022-10-19T05:01:31.267Z,100.00
2022-10-19T05:04:01.762Z,100.00
2022-10-19T05:06:31.120Z,100.00
2022-10-19T05:08:59.174Z,100.00
2022-10-19T05:11:26.893Z,100.00
2022-10-19T05:13:54.265Z,100.00
2022-10-19T05:16:23.750Z,100.00
2022-10-19T05:18:56.121Z,100.00
2022-10-19T05:21:23.228Z,100.00
2022-10-19T05:23:55.802Z,99.76
2022-10-19T05:26:26.547Z,100.00
2022-10-19T05:29:01.801Z,100.00
2022-10-19T05:31:32.666Z,99.91
2022-10-19T05:34:00.778Z,99.42
2022-10-19T05:36:37.352Z,99.28
2022-10-19T05:39:15.799Z,99.06
2022-10-19T05:41:47.722Z,99.10
2022-10-19T05:44:20.281Z,99.10
2022-10-19T05:46:49.784Z,99.20
2022-10-19T05:49:21.038Z,99.69
2022-10-19T05:51:49.566Z,100.00
2022-10-19T05:54:17.475Z,100.00
2022-10-19T05:56:46.043Z,100.00
2022-10-19T05:59:20.974Z,100.00
2022-10-19T06:01:48.591Z,100.00
2022-10-19T06:06:45.475Z,99.87
2022-10-19T06:09:12.858Z,99.82
2022-10-19T06:11:42.826Z,99.70
2022-10-19T06:14:16.002Z,99.45
2022-10-19T06:16:45.736Z,99.36
2022-10-19T06:19:12.788Z,99.39
2022-10-19T06:21:41.979Z,99.65
2022-10-19T06:24:14.190Z,99.99
2022-10-19T06:26:41.280Z,100.00
2022-10-19T06:29:08.373Z,100.00
2022-10-19T06:31:36.518Z,99.95
2022-10-19T06:34:04.459Z,99.86
2022-10-19T06:36:32.774Z,100.00
2022-10-19T06:39:01.680Z,100.00
2022-10-19T06:41:31.353Z,100.00
2022-10-19T06:44:09.736Z,100.00
2022-10-19T06:46:38.800Z,100.00
2022-10-19T06:49:05.815Z,100.00
2022-10-19T06:51:34.190Z,100.00
2022-10-19T06:54:01.277Z,100.00
2022-10-19T06:56:28.470Z,100.00
2022-10-19T06:58:55.811Z,100.00
2022-10-19T07:01:23.491Z,100.00
2022-10-19T07:03:55.259Z,99.78
2022-10-19T07:06:23.755Z,100.00
2022-10-19T07:08:52.542Z,99.76
2022-10-19T07:11:22.505Z,99.70
2022-10-19T07:13:50.418Z,99.49
2022-10-19T07:16:20.917Z,99.21
2022-10-19T07:18:52.202Z,99.48
2022-10-19T07:21:21.765Z,99.75
2022-10-19T07:23:49.410Z,99.70
2022-10-19T07:26:26.294Z,99.80
2022-10-19T07:28:56.981Z,99.98
2022-10-19T07:31:26.912Z,99.68
2022-10-19T07:34:02.732Z,99.69
2022-10-19T07:36:32.389Z,99.63
2022-10-19T07:39:01.996Z,99.37
2022-10-19T07:41:30.021Z,99.20
2022-10-19T07:43:57.937Z,99.17
2022-10-19T07:46:29.265Z,98.91
2022-10-19T07:48:56.328Z,98.66
2022-10-19T07:51:23.565Z,98.31
2022-10-19T07:53:50.780Z,97.83
2022-10-19T07:56:28.138Z,96.95
2022-10-19T07:58:58.585Z,96.14
2022-10-19T08:01:32.871Z,95.73
2022-10-19T08:06:49.707Z,95.18
2022-10-19T08:09:39.948Z,94.45
2022-10-19T08:12:05.799Z,93.97
2022-10-19T08:14:33.243Z,93.47
2022-10-19T08:17:00.841Z,92.56
2022-10-19T08:19:28.095Z,92.15
2022-10-19T08:21:55.088Z,91.64
2022-10-19T08:24:22.144Z,91.01
2022-10-19T08:26:51.297Z,90.52
2022-10-19T08:29:21.319Z,90.48
2022-10-19T08:31:49.644Z,89.85
2022-10-19T08:34:17.329Z,89.72
2022-10-19T08:36:44.440Z,88.93
2022-10-19T08:39:12.845Z,88.10
2022-10-19T08:41:40.910Z,87.94
2022-10-19T08:45:01.704Z,87.16
2022-10-19T08:47:37.675Z,85.62
2022-10-19T08:50:18.185Z,85.22
2022-10-19T08:52:55.265Z,85.58
2022-10-19T08:55:38.432Z,84.84
2022-10-19T08:58:26.623Z,83.46
2022-10-19T09:01:20.673Z,83.51
2022-10-19T09:03:59.917Z,82.72
2022-10-19T09:06:44.897Z,82.30
2022-10-19T09:09:19.358Z,82.43
2022-10-19T09:11:50.246Z,82.31
2022-10-19T09:14:38.476Z,81.35
2022-10-19T09:17:17.039Z,80.58
2022-10-19T09:19:44.255Z,79.37
2022-10-19T09:22:25.760Z,79.56
2022-10-19T09:24:59.144Z,78.82
2022-10-19T09:27:36.238Z,78.05
2022-10-19T09:30:24.156Z,77.91
2022-10-19T09:33:00.462Z,76.64
2022-10-19T09:35:38.742Z,76.22
2022-10-19T09:38:07.836Z,74.41
2022-10-19T09:40:35.478Z,73.79
2022-10-19T09:43:19.555Z,73.81
2022-10-19T09:46:11.618Z,73.90
2022-10-19T09:48:53.514Z,73.14
2022-10-19T09:51:21.247Z,71.84
2022-10-19T09:53:59.747Z,71.74
2022-10-19T09:56:28.096Z,71.37
2022-10-19T09:58:58.696Z,70.66
2022-10-19T10:01:43.931Z,69.71
2022-10-19T10:04:17.891Z,69.13
2022-10-19T10:06:49.294Z,69.74
2022-10-19T10:09:22.719Z,68.76
2022-10-19T10:11:51.358Z,68.83
2022-10-19T10:14:28.699Z,67.93
2022-10-19T10:17:14.523Z,68.46
2022-10-19T10:20:06.572Z,68.06
2022-10-19T10:22:37.164Z,68.19
2022-10-19T10:25:17.754Z,67.89
2022-10-19T10:27:59.864Z,68.05
2022-10-19T10:30:38.026Z,69.05
2022-10-19T10:33:13.410Z,68.54
2022-10-19T10:36:01.247Z,69.19
2022-10-19T10:38:35.652Z,68.33
2022-10-19T10:41:29.033Z,69.03
2022-10-19T10:44:04.917Z,69.29
2022-10-19T10:47:05.064Z,68.13
2022-10-19T10:49:38.448Z,68.44
2022-10-19T10:52:15.177Z,68.29
2022-10-19T10:55:00.635Z,67.28
2022-10-19T10:57:36.698Z,65.90
2022-10-19T11:00:15.275Z,66.78
2022-10-19T11:02:54.285Z,65.48
2022-10-19T11:05:31.225Z,65.64
2022-10-19T11:08:18.976Z,66.05
2022-10-19T11:11:14.075Z,64.53
2022-10-19T11:13:56.721Z,63.11
2022-10-19T11:16:41.339Z,62.74
2022-10-19T11:19:50.193Z,62.93
2022-10-19T11:22:48.083Z,61.04
2022-10-19T11:25:30.984Z,61.61
2022-10-19T11:28:21.742Z,60.69
2022-10-19T11:31:02.248Z,61.63
2022-10-19T11:33:55.143Z,62.08
2022-10-19T11:36:59.985Z,61.72
2022-10-19T11:40:08.546Z,59.49
2022-10-19T11:42:56.165Z,60.38
2022-10-19T11:45:50.496Z,61.01
2022-10-19T11:48:44.229Z,60.33
2022-10-19T11:51:51.597Z,60.48
2022-10-19T11:54:38.940Z,61.65
2022-10-19T11:57:26.226Z,61.04
2022-10-19T12:00:14.944Z,61.99
2022-10-19T12:03:03.809Z,60.86
2022-10-19T12:06:02.841Z,59.49
2022-10-19T12:08:49.201Z,59.46
2022-10-19T12:11:36.785Z,59.91
2022-10-19T12:14:13.509Z,59.16
2022-10-19T12:16:50.661Z,59.19
2022-10-19T12:19:26.626Z,59.64
2022-10-19T12:22:01.818Z,59.57
2022-10-19T12:24:33.485Z,59.20
2022-10-19T12:27:02.124Z,58.79
2022-10-19T12:29:36.726Z,58.63
2022-10-19T12:32:07.412Z,59.53
2022-10-19T12:34:55.729Z,58.95
2022-10-19T12:37:41.340Z,59.74
2022-10-19T12:40:43.718Z,59.70
2022-10-19T12:43:31.526Z,59.35
2022-10-19T12:46:29.403Z,59.58
2022-10-19T12:49:30.636Z,59.81
2022-10-19T12:52:02.486Z,60.89
2022-10-19T12:54:34.171Z,59.38
2022-10-19T12:57:22.718Z,59.38
2022-10-19T13:00:05.399Z,59.94
2022-10-19T13:02:40.304Z,59.96
2022-10-19T13:05:07.722Z,59.69
2022-10-19T13:07:36.935Z,60.64
2022-10-19T13:10:18.678Z,60.53
2022-10-19T13:12:48.980Z,59.85
2022-10-19T13:15:35.021Z,60.14
2022-10-19T13:18:13.831Z,60.39
2022-10-19T13:20:53.731Z,59.86
2022-10-19T13:23:26.868Z,60.24
2022-10-19T13:26:34.095Z,61.10
2022-10-19T13:29:01.836Z,60.68
2022-10-19T13:31:32.969Z,61.04
2022-10-19T13:34:00.244Z,61.10
2022-10-19T13:36:27.536Z,61.19
2022-10-19T13:39:00.440Z,61.14
2022-10-19T13:41:47.879Z,62.49
2022-10-19T13:44:22.232Z,61.18
2022-10-19T13:47:01.156Z,61.15
2022-10-19T13:49:55.163Z,62.27
2022-10-19T13:52:31.809Z,62.06
2022-10-19T13:55:37.619Z,62.47
2022-10-19T13:58:38.055Z,62.84
2022-10-19T14:01:30.592Z,63.33
2022-10-19T14:04:33.339Z,63.97
2022-10-19T14:07:13.586Z,64.66
2022-10-19T14:10:01.790Z,64.92
2022-10-19T14:12:40.402Z,65.03
2022-10-19T14:15:27.764Z,65.28
2022-10-19T14:17:56.147Z,65.34
2022-10-19T14:20:37.031Z,65.42
2022-10-19T14:23:25.240Z,65.80
2022-10-19T14:26:07.021Z,65.76
2022-10-19T14:28:34.686Z,65.86
2022-10-19T14:31:10.662Z,66.06
2022-10-19T14:33:46.442Z,66.48
2022-10-19T14:36:19.875Z,66.94
2022-10-19T14:38:53.012Z,67.22
2022-10-19T14:41:32.098Z,67.53
2022-10-19T14:44:02.943Z,67.79
2022-10-19T14:46:34.010Z,68.08
2022-10-19T14:49:06.428Z,68.17
2022-10-19T14:51:45.444Z,68.11
2022-10-19T14:54:29.073Z,68.20
2022-10-19T14:57:09.795Z,68.52
2022-10-19T14:59:52.872Z,68.64
2022-10-19T15:02:25.849Z,68.25
2022-10-19T15:04:58.330Z,68.11
2022-10-19T15:07:34.079Z,67.86
2022-10-19T15:10:07.311Z,67.62
2022-10-19T15:12:40.274Z,67.92
2022-10-19T15:15:33.637Z,67.48
2022-10-19T15:18:00.751Z,67.84
2022-10-19T15:20:49.045Z,67.75
2022-10-19T15:23:39.717Z,67.48
2022-10-19T15:26:20.523Z,68.07
2022-10-19T15:28:49.505Z,68.40
2022-10-19T15:31:24.617Z,67.90
2022-10-19T15:33:55.938Z,67.98
2022-10-19T15:36:25.384Z,68.52
2022-10-19T15:39:06.294Z,69.08
2022-10-19T15:41:45.460Z,69.57
2022-10-19T15:44:39.900Z,69.86
2022-10-19T15:47:23.112Z,70.15
2022-10-19T15:49:58.263Z,70.57
2022-10-19T15:52:31.616Z,70.91
2022-10-19T15:55:00.864Z,71.26
2022-10-19T15:57:32.912Z,71.55
2022-10-19T16:00:13.392Z,71.95
2022-10-19T16:02:40.807Z,72.27
2022-10-19T16:05:08.597Z,72.51
2022-10-19T16:07:41.241Z,72.58
2022-10-19T16:10:16.837Z,72.74
2022-10-19T16:12:44.083Z,72.87
2022-10-19T16:15:22.087Z,72.97
2022-10-19T16:17:57.353Z,73.22
2022-10-19T16:20:27.420Z,73.31
2022-10-19T16:22:54.693Z,73.42
2022-10-19T16:25:21.985Z,73.73
2022-10-19T16:27:49.147Z,74.03
2022-10-19T16:30:17.555Z,74.11
2022-10-19T16:32:44.668Z,74.35
2022-10-19T16:35:12.105Z,74.61
2022-10-19T16:37:39.088Z,74.67
2022-10-19T16:40:07.053Z,75.00
2022-10-19T16:42:34.997Z,74.95
2022-10-19T16:45:02.315Z,75.23
2022-10-19T16:47:29.388Z,75.45
2022-10-19T16:50:00.877Z,75.45
2022-10-19T16:52:29.113Z,75.33
2022-10-19T16:54:57.595Z,75.54
2022-10-19T16:57:25.591Z,75.55
2022-10-19T16:59:58.463Z,75.69
2022-10-19T17:02:25.678Z,75.90
2022-10-19T17:04:53.091Z,76.16
2022-10-19T17:07:20.183Z,76.32
2022-10-19T17:09:49.686Z,76.48
2022-10-19T17:12:18.092Z,76.61
2022-10-19T17:14:45.184Z,76.82
2022-10-19T17:17:12.826Z,76.75
2022-10-19T17:19:40.978Z,77.06
2022-10-19T17:22:07.937Z,76.89
2022-10-19T17:24:37.241Z,77.13
2022-10-19T17:27:04.223Z,77.21
2022-10-19T17:29:31.292Z,77.34
2022-10-19T17:31:59.509Z,77.57
2022-10-19T17:34:30.382Z,77.72
2022-10-19T17:36:57.473Z,77.89
2022-10-19T17:39:29.057Z,78.02
2022-10-19T17:42:01.715Z,77.89
2022-10-19T17:44:32.830Z,78.04
2022-10-19T17:47:01.116Z,78.15
2022-10-19T17:49:31.063Z,78.31
2022-10-19T17:51:58.478Z,78.18
2022-10-19T17:54:26.044Z,78.40
2022-10-19T17:56:53.184Z,78.52
2022-10-19T17:59:30.171Z,78.61
2022-10-19T18:02:04.143Z,78.58
2022-10-19T18:04:31.221Z,78.83
2022-10-19T18:06:58.224Z,78.72
2022-10-19T18:09:25.307Z,78.80
2022-10-19T18:11:52.312Z,78.49
2022-10-19T18:14:25.521Z,78.38
2022-10-19T18:16:53.658Z,78.26
2022-10-19T18:19:20.738Z,78.22
2022-10-19T18:21:49.079Z,78.28
2022-10-19T18:24:20.030Z,78.27
2022-10-19T18:26:51.302Z,78.33
2022-10-19T18:29:22.677Z,78.43
2022-10-19T18:31:54.374Z,78.35
2022-10-19T18:34:26.083Z,78.64
2022-10-19T18:36:54.339Z,78.67
2022-10-19T18:39:23.332Z,78.66
2022-10-19T18:41:54.540Z,78.68
2022-10-19T18:44:26.569Z,78.63
2022-10-19T18:46:57.006Z,78.80
2022-10-19T18:49:24.514Z,78.60
2022-10-19T18:51:55.359Z,78.90
2022-10-19T18:54:26.455Z,78.80
2022-10-19T18:56:54.329Z,78.97
2022-10-19T18:59:21.421Z,79.24
2022-10-19T19:01:48.506Z,79.11
2022-10-19T19:04:17.653Z,79.36
2022-10-19T19:06:44.797Z,79.39
2022-10-19T19:09:12.827Z,79.38
2022-10-19T19:11:41.187Z,79.59
2022-10-19T19:14:15.618Z,79.44
2022-10-19T19:16:44.326Z,79.46
2022-10-19T19:19:15.101Z,79.75
2022-10-19T19:21:44.742Z,79.71
2022-10-19T19:24:19.824Z,80.00
2022-10-19T19:26:54.120Z,80.18
2022-10-19T19:29:21.760Z,80.37
2022-10-19T19:31:49.325Z,80.39
2022-10-19T19:34:18.153Z,80.39
2022-10-19T19:36:49.040Z,80.48
2022-10-19T19:39:21.148Z,80.50
2022-10-19T19:41:49.857Z,80.52
2022-10-19T19:44:17.857Z,80.54
2022-10-19T19:46:46.382Z,80.82
2022-10-19T19:49:15.960Z,80.79
2022-10-19T19:51:43.152Z,80.87
2022-10-19T19:54:11.423Z,81.00
2022-10-19T19:56:39.295Z,81.28
2022-10-19T19:59:06.419Z,81.23
2022-10-19T20:01:33.598Z,81.57
2022-10-19T20:06:39.820Z,81.82
2022-10-19T20:09:09.148Z,82.23
2022-10-19T20:11:41.874Z,82.21
2022-10-19T20:14:10.780Z,82.36
2022-10-19T20:16:37.871Z,82.49
2022-10-19T20:19:10.486Z,82.74
2022-10-19T20:21:38.188Z,82.80
2022-10-19T20:24:05.750Z,82.97
2022-10-19T20:26:33.276Z,82.88
2022-10-19T20:29:03.546Z,83.03
2022-10-19T20:31:32.473Z,82.90
2022-10-19T20:33:59.539Z,83.11
2022-10-19T20:36:26.880Z,83.36
2022-10-19T20:38:57.517Z,83.49
2022-10-19T20:41:26.939Z,83.43
2022-10-19T20:43:55.340Z,83.70
2022-10-19T20:46:32.588Z,83.64
2022-10-19T20:49:01.935Z,84.07
2022-10-19T20:51:32.943Z,84.24
2022-10-19T20:54:03.417Z,84.21
2022-10-19T20:56:34.747Z,84.50
2022-10-19T20:59:10.643Z,84.66
2022-10-19T21:01:40.207Z,84.63
2022-10-19T21:04:10.304Z,84.87
2022-10-19T21:06:41.198Z,85.01
2022-10-19T21:09:09.707Z,85.05
2022-10-19T21:11:40.958Z,85.28
2022-10-19T21:14:13.238Z,85.04
2022-10-19T21:16:40.768Z,85.27
2022-10-19T21:19:16.593Z,85.43
2022-10-19T21:21:51.891Z,85.52
2022-10-19T21:24:23.298Z,85.77
2022-10-19T21:29:27.164Z,85.74
2022-10-19T21:31:54.743Z,85.99
2022-10-19T21:34:25.849Z,86.14
2022-10-19T21:36:54.449Z,86.24
2022-10-19T21:39:22.216Z,86.38
2022-10-19T21:41:50.308Z,86.70
2022-10-19T21:44:18.841Z,86.55
2022-10-19T21:46:49.779Z,86.53
2022-10-19T21:49:16.977Z,86.77
2022-10-19T21:51:50.080Z,86.70
2022-10-19T21:54:20.737Z,86.98
2022-10-19T21:56:48.827Z,86.94
2022-10-19T21:59:17.600Z,87.30
2022-10-19T22:01:44.773Z,87.29
2022-10-19T22:04:17.370Z,87.44
2022-10-19T22:06:45.616Z,87.58
2022-10-19T22:09:21.616Z,87.36
2022-10-19T22:11:48.900Z,87.34
2022-10-19T22:14:17.491Z,87.53
2022-10-19T22:16:44.986Z,87.41
2022-10-19T22:19:12.696Z,87.69
2022-10-19T22:21:40.412Z,87.75
2022-10-19T22:24:13.471Z,87.64
2022-10-19T22:26:45.672Z,87.88
2022-10-19T22:29:13.707Z,88.02
2022-10-19T22:31:40.838Z,88.30
2022-10-19T22:34:15.310Z,88.14
2022-10-19T22:36:42.959Z,88.45
2022-10-19T22:39:10.252Z,88.17
2022-10-19T22:42:52.420Z,88.41
2022-10-19T22:45:24.312Z,88.54
2022-10-19T22:47:51.266Z,88.65
2022-10-19T22:50:18.332Z,88.81
2022-10-19T22:52:46.348Z,88.87
2022-10-19T22:55:13.287Z,89.01
2022-10-19T22:57:40.302Z,88.84
2022-10-19T23:00:08.354Z,88.72
2022-10-19T23:02:35.603Z,88.91
2022-10-19T23:05:02.999Z,88.93
2022-10-19T23:07:30.104Z,88.75
2022-10-19T23:09:57.076Z,89.10
2022-10-19T23:12:24.104Z,88.98
2022-10-19T23:14:51.175Z,89.05
2022-10-19T23:17:18.211Z,88.94
2022-10-19T23:19:46.147Z,88.97
2022-10-19T23:22:13.131Z,89.25
2022-10-19T23:24:40.239Z,89.09
2022-10-19T23:27:07.399Z,89.25
2022-10-19T23:29:35.411Z,89.32
2022-10-19T23:32:04.884Z,89.28
2022-10-19T23:34:32.003Z,89.28
2022-10-19T23:36:59.040Z,89.50
2022-10-19T23:39:26.074Z,89.26
2022-10-19T23:41:53.080Z,89.51
2022-10-19T23:44:20.079Z,89.42
2022-10-19T23:46:47.093Z,89.65
2022-10-19T23:49:14.197Z,89.74
2022-10-19T23:51:41.224Z,89.65
2022-10-19T23:54:08.339Z,89.73
2022-10-19T23:56:35.380Z,89.77
2022-10-19T23:59:03.484Z,89.84
